Main page
METAR-TAF:

METAR-TAF

Airports :

Southwest Minnesota Regional Airport (Marshall/Ryan Field)

Marshall, Minnesota, United States

latitude: 44-27N, longitude: 095-49W, elevation: 1178 ft

Current weather observation

The report was made 27 minutes ago, at 12:56 UTC
Wind 9 mph from the North/Northwest
Temperature 27°F
Humidity 100%
Pressure 30.07 in. Hg
Visibility: 7 miles
Overcast at a height of 600 ft

METAR: KMML 241256Z AUTO 34008KT 7SM OVC006 M03/M03 A3007 RMK AO2 SLP201 T10281033 FZRANO

Time: 07:23 (13:23 UTC)


TAF: missing

Weather observations and forecasts of more than 4000 airports (METAR and TAF reports).

The available stations are represented by yellow and red dots on the map.

Hover mouse over dot to see the name of the station.

Then click to see weather observations and forecasts.

To change the map : click on the green buttons with a black cross to zoom in, on the green button with a dash to zoom out, or on the green arrows for adjacent maps.


METAR-TAF: